createdAt,value
2022-08-22T00:01:06.062Z,4.07
2022-08-22T00:02:59.527Z,5.07
2022-08-22T00:03:03.074Z,4.17
2022-08-22T00:03:04.494Z,5.13
2022-08-22T00:03:16.107Z,3.70
2022-08-22T00:03:48.644Z,3.80
2022-08-22T00:06:52.305Z,4.20
2022-08-22T00:09:31.714Z,3.83
2022-08-22T00:12:24.863Z,3.67
2022-08-22T00:14:58.523Z,3.70
2022-08-22T00:17:43.985Z,4.77
2022-08-22T00:20:32.601Z,4.87
2022-08-22T00:23:22.921Z,5.23
2022-08-22T00:26:09.419Z,5.47
2022-08-22T00:28:45.759Z,5.63
2022-08-22T00:31:21.788Z,7.03
2022-08-22T00:34:07.074Z,6.20
2022-08-22T00:36:51.378Z,6.30
2022-08-22T00:39:20.907Z,5.80
2022-08-22T00:42:08.219Z,7.03
2022-08-22T00:44:50.640Z,6.43
2022-08-22T00:47:38.568Z,6.73
2022-08-22T00:50:39.968Z,5.97
2022-08-22T00:53:12.469Z,6.47
2022-08-22T00:56:10.363Z,6.30
2022-08-22T00:58:42.662Z,6.83
2022-08-22T01:01:13.188Z,6.77
2022-08-22T01:03:39.870Z,6.37
2022-08-22T01:06:21.579Z,6.07
2022-08-22T01:08:57.485Z,6.27
2022-08-22T01:12:05.822Z,7.33
2022-08-22T01:14:44.215Z,7.77
2022-08-22T01:17:45.348Z,7.77
2022-08-22T01:21:03.272Z,7.80
2022-08-22T01:24:00.346Z,7.67
2022-08-22T01:26:55.828Z,7.10
2022-08-22T01:29:59.794Z,7.37
2022-08-22T01:32:26.402Z,7.33
2022-08-22T01:35:23.851Z,7.60
2022-08-22T01:37:59.895Z,8.03
2022-08-22T01:40:54.521Z,7.70
2022-08-22T01:44:01.145Z,7.77
2022-08-22T01:46:28.147Z,8.93
2022-08-22T01:49:16.010Z,8.47
2022-08-22T01:52:09.642Z,8.33
2022-08-22T01:54:45.235Z,7.83
2022-08-22T01:57:13.220Z,8.70
2022-08-22T01:59:46.405Z,8.90
2022-08-22T02:02:31.182Z,9.30
2022-08-22T02:05:18.589Z,8.50
2022-08-22T02:08:03.831Z,8.33
2022-08-22T02:10:57.369Z,8.90
2022-08-22T02:13:58.676Z,8.63
2022-08-22T02:16:31.145Z,8.87
2022-08-22T02:19:04.494Z,8.13
2022-08-22T02:22:05.096Z,8.73
2022-08-22T02:24:49.790Z,8.27
2022-08-22T02:27:53.564Z,8.43
2022-08-22T02:30:45.175Z,8.60
2022-08-22T02:33:54.548Z,9.17
2022-08-22T02:36:30.549Z,8.50
2022-08-22T02:39:34.646Z,8.93
2022-08-22T02:42:21.631Z,8.63
2022-08-22T02:45:00.676Z,8.83
2022-08-22T02:47:46.350Z,9.23
2022-08-22T02:50:20.754Z,8.43
2022-08-22T02:52:57.675Z,8.50
2022-08-22T02:55:37.343Z,9.00
2022-08-22T02:58:23.434Z,8.50
2022-08-22T03:01:15.408Z,8.73
2022-08-22T03:03:45.862Z,8.97
2022-08-22T03:06:37.218Z,8.67
2022-08-22T03:09:15.810Z,8.47
2022-08-22T03:11:49.403Z,9.10
2022-08-22T03:14:48.418Z,9.00
2022-08-22T03:17:23.376Z,8.30
2022-08-22T03:20:12.998Z,7.70
2022-08-22T03:22:51.806Z,7.67
2022-08-22T03:25:34.908Z,8.70
2022-08-22T03:28:16.102Z,8.10
2022-08-22T03:30:51.523Z,8.40
2022-08-22T03:33:24.478Z,8.87
2022-08-22T03:36:01.640Z,8.43
2022-08-22T03:38:54.349Z,8.63
2022-08-22T03:41:58.442Z,8.47
2022-08-22T03:45:02.469Z,8.33
2022-08-22T03:47:48.920Z,8.57
2022-08-22T03:50:33.901Z,8.23
2022-08-22T03:53:22.093Z,8.90
2022-08-22T03:55:51.317Z,8.47
2022-08-22T03:58:38.975Z,8.63
2022-08-22T04:01:31.553Z,8.63
2022-08-22T04:04:20.246Z,8.87
2022-08-22T04:07:35.736Z,8.57
2022-08-22T04:10:39.958Z,8.10
2022-08-22T04:13:31.362Z,8.70
2022-08-22T04:15:58.123Z,8.83
2022-08-22T04:19:16.474Z,8.90
2022-08-22T04:22:07.851Z,8.97
2022-08-22T04:24:53.307Z,8.57
2022-08-22T04:27:29.901Z,8.67
2022-08-22T04:30:06.761Z,8.87
2022-08-22T04:32:39.204Z,8.40
2022-08-22T04:35:35.003Z,9.13
2022-08-22T04:38:09.243Z,8.87
2022-08-22T04:40:55.357Z,8.73
2022-08-22T04:43:39.732Z,9.53
2022-08-22T04:46:36.605Z,8.33
2022-08-22T04:49:19.819Z,7.70
2022-08-22T04:51:57.611Z,9.00
2022-08-22T04:54:24.250Z,7.60
2022-08-22T04:57:05.996Z,8.10
2022-08-22T04:59:34.477Z,7.93
2022-08-22T05:02:06.472Z,8.80
2022-08-22T05:04:36.238Z,8.30
2022-08-22T05:07:13.570Z,8.23
2022-08-22T05:09:46.528Z,8.60
2022-08-22T05:12:19.346Z,7.73
2022-08-22T05:14:58.623Z,8.17
2022-08-22T05:17:30.711Z,7.53
2022-08-22T05:20:03.285Z,8.07
2022-08-22T05:22:35.292Z,8.77
2022-08-22T05:25:08.657Z,8.17
2022-08-22T05:27:42.256Z,7.37
2022-08-22T05:30:15.848Z,7.43
2022-08-22T05:32:51.928Z,8.27
2022-08-22T05:35:25.730Z,8.10
2022-08-22T05:37:55.515Z,8.43
2022-08-22T05:40:28.366Z,8.43
2022-08-22T05:42:57.468Z,8.13
2022-08-22T05:45:26.649Z,7.17
2022-08-22T05:48:04.263Z,7.93
2022-08-22T05:50:43.264Z,8.33
2022-08-22T05:53:10.016Z,7.83
2022-08-22T05:55:40.118Z,8.47
2022-08-22T05:58:33.647Z,9.13
2022-08-22T06:01:14.689Z,8.20
2022-08-22T06:04:07.039Z,9.03
2022-08-22T06:06:50.668Z,9.00
2022-08-22T06:09:42.586Z,8.93
2022-08-22T06:12:16.855Z,8.57
2022-08-22T06:15:11.970Z,8.40
2022-08-22T06:17:50.079Z,8.23
2022-08-22T06:20:22.143Z,7.97
2022-08-22T06:22:57.824Z,9.37
2022-08-22T06:25:34.071Z,8.20
2022-08-22T06:28:09.332Z,8.87
2022-08-22T06:30:39.573Z,8.83
2022-08-22T06:33:12.854Z,8.50
2022-08-22T06:36:00.324Z,9.27
2022-08-22T06:38:33.586Z,8.57
2022-08-22T06:41:07.005Z,8.57
2022-08-22T06:43:39.598Z,8.63
2022-08-22T06:46:07.576Z,8.03
2022-08-22T06:48:36.267Z,8.43
2022-08-22T06:51:07.106Z,8.40
2022-08-22T06:53:56.972Z,9.27
2022-08-22T06:56:26.556Z,8.13
2022-08-22T06:58:59.550Z,7.53
2022-08-22T07:01:38.161Z,6.93
2022-08-22T07:04:09.100Z,7.20
2022-08-22T07:06:42.631Z,6.50
2022-08-22T07:09:34.989Z,7.20
2022-08-22T07:12:11.191Z,6.73
2022-08-22T07:14:48.482Z,7.57
2022-08-22T07:17:22.209Z,7.20
2022-08-22T07:19:56.048Z,6.77
2022-08-22T07:22:26.739Z,6.90
2022-08-22T07:25:01.656Z,6.87
2022-08-22T07:27:31.425Z,7.47
2022-08-22T07:30:13.136Z,7.03
2022-08-22T07:33:26.777Z,6.80
2022-08-22T07:36:00.020Z,6.10
2022-08-22T07:38:43.939Z,6.90
2022-08-22T07:41:20.822Z,6.27
2022-08-22T07:43:56.779Z,6.43
2022-08-22T07:47:05.963Z,6.37
2022-08-22T07:49:38.509Z,6.70
2022-08-22T07:52:12.427Z,7.07
2022-08-22T07:55:11.912Z,7.10
2022-08-22T07:57:43.315Z,6.90
2022-08-22T08:00:17.512Z,6.87
2022-08-22T08:02:51.811Z,7.97
2022-08-22T08:05:21.580Z,7.97
2022-08-22T08:07:49.121Z,7.67
2022-08-22T08:10:21.824Z,8.23
2022-08-22T08:13:02.713Z,7.57
2022-08-22T08:15:32.272Z,7.07
2022-08-22T08:18:05.458Z,7.30
2022-08-22T08:20:35.544Z,8.10
2022-08-22T08:23:04.948Z,7.97
2022-08-22T08:25:48.570Z,8.27
2022-08-22T08:28:38.107Z,7.57
2022-08-22T08:31:20.713Z,7.43
2022-08-22T08:33:50.723Z,7.87
2022-08-22T08:36:24.896Z,8.03
2022-08-22T08:39:23.876Z,7.63
2022-08-22T08:42:28.890Z,8.13
2022-08-22T08:45:11.384Z,7.40
2022-08-22T08:47:55.475Z,7.70
2022-08-22T08:50:23.722Z,6.80
2022-08-22T08:53:17.898Z,7.43
2022-08-22T08:55:56.316Z,7.30
2022-08-22T08:58:37.951Z,8.10
2022-08-22T09:01:47.670Z,7.93
2022-08-22T09:04:15.638Z,7.67
2022-08-22T09:07:01.571Z,7.53
2022-08-22T09:09:46.510Z,8.53
2022-08-22T09:12:37.165Z,7.07
2022-08-22T09:15:54.935Z,7.33
2022-08-22T09:18:46.140Z,8.13
2022-08-22T09:21:31.511Z,7.83
2022-08-22T09:24:39.486Z,7.70
2022-08-22T09:27:43.038Z,7.87
2022-08-22T09:30:17.211Z,7.83
2022-08-22T09:33:06.332Z,7.63
2022-08-22T09:35:51.019Z,6.73
2022-08-22T09:38:56.495Z,7.77
2022-08-22T09:41:35.803Z,7.33
2022-08-22T09:44:53.109Z,8.00
2022-08-22T09:47:33.803Z,7.87
2022-08-22T09:50:20.480Z,8.40
2022-08-22T09:52:53.916Z,7.50
2022-08-22T09:55:45.848Z,7.57
2022-08-22T09:58:27.771Z,8.10
2022-08-22T10:01:13.342Z,7.73
2022-08-22T10:03:46.027Z,8.33
2022-08-22T10:06:54.738Z,6.90
2022-08-22T10:09:31.329Z,7.63
2022-08-22T10:12:13.263Z,7.87
2022-08-22T10:15:17.362Z,7.43
2022-08-22T10:17:58.548Z,7.53
2022-08-22T10:20:32.166Z,7.47
2022-08-22T10:23:01.078Z,7.67
2022-08-22T10:25:37.826Z,8.00
2022-08-22T10:28:14.930Z,8.70
2022-08-22T10:31:00.909Z,7.73
2022-08-22T10:33:52.137Z,7.17
2022-08-22T10:36:32.500Z,8.10
2022-08-22T10:39:02.041Z,7.03
2022-08-22T10:41:56.510Z,8.20
2022-08-22T10:44:40.309Z,8.10
2022-08-22T10:47:20.901Z,7.90
2022-08-22T10:49:54.718Z,8.57
2022-08-22T10:52:30.363Z,7.70
2022-08-22T10:55:11.555Z,8.20
2022-08-22T10:57:52.839Z,7.90
2022-08-22T11:00:38.229Z,7.87
2022-08-22T11:03:20.018Z,7.27
2022-08-22T11:05:50.955Z,8.30
2022-08-22T11:08:21.915Z,9.27
2022-08-22T11:11:00.888Z,8.37
2022-08-22T11:13:44.542Z,7.97
2022-08-22T11:16:26.342Z,7.63
2022-08-22T11:19:15.318Z,7.70
2022-08-22T11:22:10.048Z,7.87
2022-08-22T11:24:56.749Z,8.20
2022-08-22T11:27:58.010Z,7.30
2022-08-22T11:30:50.829Z,8.03
2022-08-22T11:33:47.097Z,8.23
2022-08-22T11:36:36.334Z,7.83
2022-08-22T11:39:25.578Z,7.67
2022-08-22T11:42:15.214Z,7.87
2022-08-22T11:44:56.614Z,6.97
2022-08-22T11:47:30.220Z,8.27
2022-08-22T11:50:28.245Z,8.67
2022-08-22T11:52:54.924Z,8.30
2022-08-22T11:55:21.629Z,9.70
2022-08-22T11:58:06.852Z,8.47
2022-08-22T12:00:47.663Z,10.53
2022-08-22T12:03:23.613Z,9.97
2022-08-22T12:05:53.073Z,9.53
2022-08-22T12:08:35.485Z,10.17
2022-08-22T12:11:41.048Z,9.70
2022-08-22T12:14:39.163Z,9.17
2022-08-22T12:17:55.156Z,10.00
2022-08-22T12:20:23.894Z,9.47
2022-08-22T12:23:40.751Z,8.30
2022-08-22T12:26:40.577Z,8.73
2022-08-22T12:29:16.670Z,8.17
2022-08-22T12:31:59.140Z,8.67
2022-08-22T12:34:47.784Z,9.23
2022-08-22T12:37:17.707Z,9.27
2022-08-22T12:40:09.836Z,8.87
2022-08-22T12:43:01.796Z,8.40
2022-08-22T12:45:43.714Z,8.07
2022-08-22T12:48:12.087Z,9.47
2022-08-22T12:50:55.689Z,8.80
2022-08-22T12:53:38.595Z,9.43
2022-08-22T12:56:11.156Z,9.27
2022-08-22T12:58:56.572Z,8.87
2022-08-22T13:01:34.202Z,9.10
2022-08-22T13:04:08.278Z,8.93
2022-08-22T13:06:35.706Z,9.10
2022-08-22T13:09:18.864Z,9.17
2022-08-22T13:11:54.604Z,9.50
2022-08-22T13:14:27.758Z,9.40
2022-08-22T13:16:59.007Z,8.47
2022-08-22T13:19:31.885Z,8.63
2022-08-22T13:22:11.732Z,8.77
2022-08-22T13:25:26.113Z,8.90
2022-08-22T13:28:04.185Z,9.00
2022-08-22T13:30:37.392Z,10.00
2022-08-22T13:33:14.617Z,9.43
2022-08-22T13:35:54.752Z,8.87
2022-08-22T13:38:33.021Z,8.73
2022-08-22T13:41:03.293Z,8.07
2022-08-22T13:43:55.143Z,8.77
2022-08-22T13:46:28.147Z,7.80
2022-08-22T13:49:00.873Z,8.60
2022-08-22T13:51:56.154Z,7.27
2022-08-22T13:54:44.797Z,6.97
2022-08-22T13:57:24.701Z,7.60
2022-08-22T14:00:06.803Z,7.60
2022-08-22T14:02:52.114Z,7.80
2022-08-22T14:05:41.427Z,7.80
2022-08-22T14:08:12.675Z,8.20
2022-08-22T14:10:50.475Z,8.63
2022-08-22T14:13:39.595Z,9.40
2022-08-22T14:16:30.779Z,8.83
2022-08-22T14:19:06.841Z,9.10
2022-08-22T14:21:45.431Z,8.67
2022-08-22T14:24:19.108Z,9.70
2022-08-22T14:26:57.864Z,9.23
2022-08-22T14:29:31.842Z,9.23
2022-08-22T14:32:03.292Z,10.10
2022-08-22T14:34:32.073Z,8.50
2022-08-22T14:37:08.616Z,8.97
2022-08-22T14:39:47.173Z,8.50
2022-08-22T14:42:20.110Z,7.87
2022-08-22T14:45:00.577Z,7.13
2022-08-22T14:47:55.418Z,8.57
2022-08-22T14:50:53.055Z,9.33
2022-08-22T14:53:19.854Z,8.90
2022-08-22T14:56:01.205Z,9.83
2022-08-22T14:58:30.365Z,11.17
2022-08-22T15:00:58.335Z,10.10
2022-08-22T15:03:32.464Z,10.83
2022-08-22T15:06:04.311Z,10.40
2022-08-22T15:08:35.912Z,9.83
2022-08-22T15:11:32.925Z,9.17
2022-08-22T15:14:12.548Z,9.73
2022-08-22T15:16:51.492Z,9.60
2022-08-22T15:19:29.822Z,10.53
2022-08-22T15:22:14.951Z,11.53
2022-08-22T15:24:46.930Z,9.77
2022-08-22T15:27:19.248Z,9.93
2022-08-22T15:29:53.552Z,10.03
2022-08-22T15:32:26.867Z,10.97
2022-08-22T15:35:05.271Z,10.77
2022-08-22T15:38:29.472Z,11.73
2022-08-22T15:41:17.159Z,11.33
2022-08-22T15:44:33.921Z,10.30
2022-08-22T15:50:27.641Z,11.70
2022-08-22T15:53:22.042Z,11.83
2022-08-22T15:56:11.800Z,11.60
2022-08-22T15:58:48.526Z,11.40
2022-08-22T16:01:37.544Z,13.33
2022-08-22T16:04:12.789Z,11.33
2022-08-22T16:06:53.429Z,12.67
2022-08-22T16:09:29.177Z,11.90
2022-08-22T16:11:57.160Z,11.50
2022-08-22T16:14:46.545Z,12.17
2022-08-22T16:17:44.442Z,12.50
2022-08-22T16:20:19.693Z,11.97
2022-08-22T16:22:58.936Z,11.77
2022-08-22T16:26:03.678Z,12.40
2022-08-22T16:28:57.426Z,11.20
2022-08-22T16:31:57.190Z,10.57
2022-08-22T16:34:27.470Z,9.80
2022-08-22T16:37:02.978Z,10.50
2022-08-22T16:39:36.308Z,10.83
2022-08-22T16:42:15.647Z,10.00
2022-08-22T16:45:06.982Z,10.20
2022-08-22T16:47:33.579Z,10.07
2022-08-22T16:50:10.049Z,9.97
2022-08-22T16:53:02.694Z,10.63
2022-08-22T16:55:29.532Z,10.00
2022-08-22T16:58:12.506Z,10.60
2022-08-22T17:01:07.232Z,8.67
2022-08-22T17:03:57.702Z,10.00
2022-08-22T17:06:42.968Z,10.27
2022-08-22T17:09:28.264Z,9.77
2022-08-22T17:12:15.905Z,9.93
2022-08-22T17:15:13.112Z,9.83
2022-08-22T17:18:18.974Z,9.83
2022-08-22T17:21:11.940Z,10.07
2022-08-22T17:23:44.258Z,9.67
2022-08-22T17:26:19.878Z,10.37
2022-08-22T17:28:55.240Z,10.03
2022-08-22T17:31:43.537Z,10.10
2022-08-22T17:34:41.401Z,9.60
2022-08-22T17:37:22.498Z,9.43
2022-08-22T17:40:08.140Z,9.47
2022-08-22T17:42:53.385Z,9.73
2022-08-22T17:45:31.006Z,9.53
2022-08-22T17:48:12.530Z,8.97
2022-08-22T17:50:49.107Z,10.80
2022-08-22T17:53:33.207Z,9.33
2022-08-22T17:56:21.584Z,9.07
2022-08-22T17:59:13.321Z,9.23
2022-08-22T18:01:45.651Z,9.27
2022-08-22T18:04:53.966Z,10.57
2022-08-22T18:07:27.876Z,10.00
2022-08-22T18:10:04.689Z,9.63
2022-08-22T18:12:44.443Z,9.00
2022-08-22T18:15:21.782Z,8.50
2022-08-22T18:17:57.398Z,8.90
2022-08-22T18:20:33.256Z,8.90
2022-08-22T18:23:40.256Z,8.37
2022-08-22T18:26:25.170Z,8.73
2022-08-22T18:29:17.139Z,8.20
2022-08-22T18:32:08.103Z,7.70
2022-08-22T18:34:44.771Z,8.53
2022-08-22T18:37:23.479Z,9.17
2022-08-22T18:40:01.377Z,8.73
2022-08-22T18:42:44.305Z,8.83
2022-08-22T18:45:48.403Z,8.07
2022-08-22T18:48:59.477Z,7.63
2022-08-22T18:51:35.875Z,7.73
2022-08-22T18:54:05.204Z,8.40
2022-08-22T18:56:33.140Z,8.10
2022-08-22T18:59:21.170Z,9.00
2022-08-22T19:02:10.571Z,8.17
2022-08-22T19:04:51.369Z,7.77
2022-08-22T19:07:59.974Z,7.90
2022-08-22T19:10:29.456Z,8.30
2022-08-22T19:12:58.884Z,8.43
2022-08-22T19:15:35.788Z,8.47
2022-08-22T19:18:20.454Z,9.00
2022-08-22T19:21:31.826Z,9.53
2022-08-22T19:23:58.893Z,9.13
2022-08-22T19:26:37.466Z,9.77
2022-08-22T19:29:24.447Z,8.90
2022-08-22T19:31:55.107Z,8.80
2022-08-22T19:34:30.387Z,9.93
2022-08-22T19:37:33.126Z,9.23
2022-08-22T19:40:47.807Z,8.53
2022-08-22T19:43:37.948Z,8.63
2022-08-22T19:46:09.136Z,8.67
2022-08-22T19:48:48.562Z,9.03
2022-08-22T19:51:20.826Z,8.43
2022-08-22T19:54:01.558Z,8.10
2022-08-22T19:56:36.031Z,9.00
2022-08-22T19:59:44.436Z,8.40
2022-08-22T20:02:56.546Z,9.13
2022-08-22T20:05:34.155Z,9.20
2022-08-22T20:08:19.112Z,9.10
2022-08-22T20:11:05.027Z,10.67
2022-08-22T20:13:34.877Z,10.57
2022-08-22T20:16:18.806Z,10.13
2022-08-22T20:19:05.013Z,9.50
2022-08-22T20:21:40.621Z,10.43
2022-08-22T20:24:12.021Z,10.03
2022-08-22T20:26:57.338Z,10.67
2022-08-22T20:29:31.715Z,11.47
2022-08-22T20:31:59.133Z,9.73
2022-08-22T20:34:30.289Z,10.53
2022-08-22T20:37:23.679Z,10.00
2022-08-22T20:40:07.374Z,9.53
2022-08-22T20:42:54.980Z,9.60
2022-08-22T20:45:29.590Z,9.30
2022-08-22T20:47:57.896Z,9.40
2022-08-22T20:50:32.334Z,10.23
2022-08-22T20:53:15.041Z,10.70
2022-08-22T20:55:54.783Z,10.67
2022-08-22T20:58:26.107Z,9.77
2022-08-22T21:00:56.559Z,9.83
2022-08-22T21:03:32.113Z,10.10
2022-08-22T21:06:12.958Z,10.07
2022-08-22T21:08:40.704Z,9.53
2022-08-22T21:11:26.606Z,9.93
2022-08-22T21:13:54.055Z,9.17
2022-08-22T21:16:33.088Z,9.80
2022-08-22T21:19:03.631Z,10.17
2022-08-22T21:21:34.530Z,10.47
2022-08-22T21:24:04.908Z,9.73
2022-08-22T21:26:37.233Z,9.10
2022-08-22T21:29:18.686Z,9.50
2022-08-22T21:31:59.125Z,9.40
2022-08-22T21:34:35.951Z,10.33
2022-08-22T21:37:11.890Z,9.27
2022-08-22T21:39:51.238Z,9.57
2022-08-22T21:42:28.075Z,10.40
2022-08-22T21:45:00.147Z,10.17
2022-08-22T21:47:30.842Z,10.70
2022-08-22T21:50:13.308Z,9.73
2022-08-22T21:52:59.809Z,9.90
2022-08-22T21:55:34.863Z,9.00
2022-08-22T21:58:08.992Z,9.43
2022-08-22T22:00:48.740Z,9.20
2022-08-22T22:03:18.921Z,9.23
2022-08-22T22:05:45.902Z,9.20
2022-08-22T22:08:13.329Z,9.80
2022-08-22T22:10:42.773Z,9.53
2022-08-22T22:13:09.981Z,10.80
2022-08-22T22:15:44.090Z,10.00
2022-08-22T22:18:16.889Z,9.70
2022-08-22T22:20:45.429Z,9.37
2022-08-22T22:23:12.522Z,10.03
2022-08-22T22:25:42.398Z,9.57
2022-08-22T22:28:38.074Z,9.00
2022-08-22T22:31:05.388Z,9.13
2022-08-22T22:33:37.182Z,9.27
2022-08-22T22:36:07.831Z,9.80
2022-08-22T22:38:34.925Z,9.27
2022-08-22T22:41:01.716Z,9.20
2022-08-22T22:43:28.727Z,9.70
2022-08-22T22:45:55.484Z,9.57
2022-08-22T22:48:24.737Z,9.27
2022-08-22T22:50:52.985Z,8.83
2022-08-22T22:53:21.291Z,9.17
2022-08-22T22:56:00.186Z,8.67
2022-08-22T22:58:31.457Z,9.00
2022-08-22T23:00:59.167Z,8.50
2022-08-22T23:03:26.821Z,9.10
2022-08-22T23:05:53.541Z,8.60
2022-08-22T23:08:20.525Z,9.20
2022-08-22T23:10:47.228Z,9.77
2022-08-22T23:13:14.057Z,9.60
2022-08-22T23:15:40.737Z,8.63
2022-08-22T23:18:07.517Z,9.23
2022-08-22T23:20:34.196Z,9.97
2022-08-22T23:23:00.866Z,10.77
2022-08-22T23:25:27.800Z,10.33
2022-08-22T23:27:54.740Z,9.13
2022-08-22T23:30:21.907Z,9.90
2022-08-22T23:32:51.370Z,9.87
2022-08-22T23:35:18.275Z,9.40
2022-08-22T23:37:45.062Z,10.33
2022-08-22T23:40:11.885Z,10.87
2022-08-22T23:42:38.823Z,10.13
2022-08-22T23:45:06.044Z,10.13
2022-08-22T23:47:32.835Z,10.57
2022-08-22T23:49:59.457Z,9.17
2022-08-22T23:52:32.915Z,10.83
2022-08-22T23:54:59.739Z,10.27
2022-08-22T23:57:27.563Z,11.07
2022-08-22T23:59:57.419Z,9.63
